sensor_id;sensor_type;location;lat;lon;timestamp;pressure;altitude;pressure_sealevel;temperature;humidity
62510;BME280;48558;48.242;11.654;2023-02-15T00:01:40;97652.38;;;-1.49;100.00
62510;BME280;48558;48.242;11.654;2023-02-15T00:05:56;97651.16;;;-1.36;100.00
62510;BME280;48558;48.242;11.654;2023-02-15T00:10:09;97651.59;;;-1.50;100.00
62510;BME280;48558;48.242;11.654;2023-02-15T00:14:24;97643.31;;;-1.72;100.00
62510;BME280;48558;48.242;11.654;2023-02-15T00:18:39;97650.47;;;-1.64;100.00
62510;BME280;48558;48.242;11.654;2023-02-15T00:22:52;97635.34;;;-1.50;100.00
62510;BME280;48558;48.242;11.654;2023-02-15T00:27:14;97631.75;;;-1.38;100.00
62510;BME280;48558;48.242;11.654;2023-02-15T00:31:30;97642.91;;;-1.24;100.00
62510;BME280;48558;48.242;11.654;2023-02-15T00:35:48;97614.56;;;-1.26;100.00
62510;BME280;48558;48.242;11.654;2023-02-15T00:40:00;97635.44;;;-1.11;100.00
62510;BME280;48558;48.242;11.654;2023-02-15T00:44:14;97634.56;;;-1.15;100.00
62510;BME280;48558;48.242;11.654;2023-02-15T00:48:27;97636.44;;;-1.35;100.00
62510;BME280;48558;48.242;11.654;2023-02-15T00:52:40;97627.97;;;-1.33;100.00
62510;BME280;48558;48.242;11.654;2023-02-15T00:56:52;97619.13;;;-1.30;100.00
62510;BME280;48558;48.242;11.654;2023-02-15T01:01:08;97626.34;;;-1.19;100.00
62510;BME280;48558;48.242;11.654;2023-02-15T01:05:22;97607.97;;;-1.10;100.00
62510;BME280;48558;48.242;11.654;2023-02-15T01:09:34;97622.84;;;-1.54;100.00
62510;BME280;48558;48.242;11.654;2023-02-15T01:13:52;97612.19;;;-1.78;100.00
62510;BME280;48558;48.242;11.654;2023-02-15T01:18:12;97588.53;;;-1.97;100.00
62510;BME280;48558;48.242;11.654;2023-02-15T01:22:25;97596.13;;;-1.87;100.00
62510;BME280;48558;48.242;11.654;2023-02-15T01:26:37;97590.19;;;-1.77;100.00
62510;BME280;48558;48.242;11.654;2023-02-15T01:30:50;97589.91;;;-2.19;100.00
62510;BME280;48558;48.242;11.654;2023-02-15T01:35:03;97596.97;;;-1.83;100.00
62510;BME280;48558;48.242;11.654;2023-02-15T01:39:16;97596.06;;;-1.56;100.00
62510;BME280;48558;48.242;11.654;2023-02-15T01:43:42;97590.66;;;-1.56;100.00
62510;BME280;48558;48.242;11.654;2023-02-15T01:48:20;97596.78;;;-1.43;100.00
62510;BME280;48558;48.242;11.654;2023-02-15T01:52:37;97578.44;;;-1.30;100.00
62510;BME280;48558;48.242;11.654;2023-02-15T01:56:58;97569.72;;;-1.39;100.00
62510;BME280;48558;48.242;11.654;2023-02-15T02:01:14;97556.09;;;-1.43;100.00
62510;BME280;48558;48.242;11.654;2023-02-15T02:05:26;97553.56;;;-1.36;100.00
62510;BME280;48558;48.242;11.654;2023-02-15T02:09:40;97556.47;;;-1.60;100.00
62510;BME280;48558;48.242;11.654;2023-02-15T02:13:53;97562.69;;;-1.60;100.00
62510;BME280;48558;48.242;11.654;2023-02-15T02:27:34;97558.28;;;-1.99;100.00
62510;BME280;48558;48.242;11.654;2023-02-15T02:36:49;97550.03;;;-1.71;100.00
62510;BME280;48558;48.242;11.654;2023-02-15T02:45:47;97554.25;;;-1.89;100.00
62510;BME280;48558;48.242;11.654;2023-02-15T02:50:08;97549.63;;;-1.89;100.00
62510;BME280;48558;48.242;11.654;2023-02-15T02:54:25;97542.00;;;-1.68;100.00
62510;BME280;48558;48.242;11.654;2023-02-15T02:58:44;97537.81;;;-1.81;100.00
62510;BME280;48558;48.242;11.654;2023-02-15T03:03:03;97546.31;;;-1.82;100.00
62510;BME280;48558;48.242;11.654;2023-02-15T03:07:30;97534.97;;;-1.88;100.00
62510;BME280;48558;48.242;11.654;2023-02-15T03:11:44;97536.44;;;-1.90;100.00
62510;BME280;48558;48.242;11.654;2023-02-15T03:15:58;97543.69;;;-1.79;100.00
62510;BME280;48558;48.242;11.654;2023-02-15T03:20:34;97537.69;;;-1.88;100.00
62510;BME280;48558;48.242;11.654;2023-02-15T03:29:27;97545.94;;;-1.65;100.00
62510;BME280;48558;48.242;11.654;2023-02-15T03:33:56;97521.13;;;-1.83;100.00
62510;BME280;48558;48.242;11.654;2023-02-15T03:38:13;97535.50;;;-1.98;100.00
62510;BME280;48558;48.242;11.654;2023-02-15T03:42:32;97532.59;;;-2.05;100.00
62510;BME280;48558;48.242;11.654;2023-02-15T03:51:19;97539.28;;;-1.68;100.00
62510;BME280;48558;48.242;11.654;2023-02-15T03:55:49;97550.47;;;-1.69;100.00
62510;BME280;48558;48.242;11.654;2023-02-15T04:00:26;97547.81;;;-2.00;100.00
62510;BME280;48558;48.242;11.654;2023-02-15T04:04:56;97531.91;;;-2.02;100.00
62510;BME280;48558;48.242;11.654;2023-02-15T04:09:09;97536.47;;;-2.06;100.00
62510;BME280;48558;48.242;11.654;2023-02-15T04:13:40;97543.09;;;-1.88;100.00
62510;BME280;48558;48.242;11.654;2023-02-15T04:17:53;97533.91;;;-1.83;100.00
62510;BME280;48558;48.242;11.654;2023-02-15T04:22:05;97531.09;;;-1.87;100.00
62510;BME280;48558;48.242;11.654;2023-02-15T04:26:38;97531.09;;;-1.87;100.00
62510;BME280;48558;48.242;11.654;2023-02-15T04:30:50;97520.75;;;-1.66;100.00
62510;BME280;48558;48.242;11.654;2023-02-15T04:35:03;97539.41;;;-1.45;100.00
62510;BME280;48558;48.242;11.654;2023-02-15T04:39:18;97547.66;;;-1.57;100.00
62510;BME280;48558;48.242;11.654;2023-02-15T04:43:31;97539.75;;;-1.47;100.00
62510;BME280;48558;48.242;11.654;2023-02-15T04:47:43;97547.25;;;-1.40;100.00
62510;BME280;48558;48.242;11.654;2023-02-15T04:51:56;97534.88;;;-1.91;100.00
62510;BME280;48558;48.242;11.654;2023-02-15T04:56:08;97545.50;;;-1.83;100.00
62510;BME280;48558;48.242;11.654;2023-02-15T05:00:21;97538.72;;;-1.92;100.00
62510;BME280;48558;48.242;11.654;2023-02-15T05:04:34;97525.22;;;-1.73;100.00
62510;BME280;48558;48.242;11.654;2023-02-15T05:08:46;97530.66;;;-1.73;100.00
62510;BME280;48558;48.242;11.654;2023-02-15T05:12:59;97533.75;;;-1.56;100.00
62510;BME280;48558;48.242;11.654;2023-02-15T05:17:11;97540.84;;;-1.67;100.00
62510;BME280;48558;48.242;11.654;2023-02-15T05:21:34;97542.59;;;-1.59;100.00
62510;BME280;48558;48.242;11.654;2023-02-15T05:25:47;97534.91;;;-1.57;100.00
62510;BME280;48558;48.242;11.654;2023-02-15T05:30:19;97532.34;;;-1.50;100.00
62510;BME280;48558;48.242;11.654;2023-02-15T05:34:32;97528.06;;;-1.51;100.00
62510;BME280;48558;48.242;11.654;2023-02-15T05:38:45;97547.25;;;-1.75;100.00
62510;BME280;48558;48.242;11.654;2023-02-15T05:42:57;97549.38;;;-1.84;100.00
62510;BME280;48558;48.242;11.654;2023-02-15T05:47:10;97544.97;;;-1.73;100.00
62510;BME280;48558;48.242;11.654;2023-02-15T05:51:29;97554.63;;;-1.91;100.00
62510;BME280;48558;48.242;11.654;2023-02-15T05:55:41;97544.81;;;-1.80;100.00
62510;BME280;48558;48.242;11.654;2023-02-15T05:59:54;97548.22;;;-1.83;100.00
62510;BME280;48558;48.242;11.654;2023-02-15T06:04:06;97549.44;;;-1.80;100.00
62510;BME280;48558;48.242;11.654;2023-02-15T06:08:21;97551.44;;;-1.62;100.00
62510;BME280;48558;48.242;11.654;2023-02-15T06:12:34;97556.47;;;-1.60;100.00
62510;BME280;48558;48.242;11.654;2023-02-15T06:16:46;97540.66;;;-1.58;100.00
62510;BME280;48558;48.242;11.654;2023-02-15T06:20:59;97546.59;;;-1.53;100.00
62510;BME280;48558;48.242;11.654;2023-02-15T06:25:11;97558.41;;;-1.45;100.00
62510;BME280;48558;48.242;11.654;2023-02-15T06:29:24;97559.28;;;-1.57;100.00
62510;BME280;48558;48.242;11.654;2023-02-15T06:33:46;97558.47;;;-1.41;100.00
62510;BME280;48558;48.242;11.654;2023-02-15T06:37:59;97567.16;;;-1.52;100.00
62510;BME280;48558;48.242;11.654;2023-02-15T06:42:11;97572.78;;;-1.76;100.00
62510;BME280;48558;48.242;11.654;2023-02-15T06:46:24;97573.47;;;-1.63;100.00
62510;BME280;48558;48.242;11.654;2023-02-15T06:50:37;97567.91;;;-1.51;100.00
62510;BME280;48558;48.242;11.654;2023-02-15T06:54:49;97578.38;;;-1.34;100.00
62510;BME280;48558;48.242;11.654;2023-02-15T06:59:02;97573.44;;;-1.48;100.00
62510;BME280;48558;48.242;11.654;2023-02-15T07:03:15;97578.75;;;-1.16;100.00
62510;BME280;48558;48.242;11.654;2023-02-15T07:07:27;97563.44;;;-1.09;100.00
62510;BME280;48558;48.242;11.654;2023-02-15T07:11:49;97571.03;;;-1.33;100.00
62510;BME280;48558;48.242;11.654;2023-02-15T07:16:30;97572.59;;;-1.32;100.00
62510;BME280;48558;48.242;11.654;2023-02-15T07:20:43;97565.34;;;-1.09;100.00
62510;BME280;48558;48.242;11.654;2023-02-15T07:24:55;97577.06;;;-0.86;100.00
62510;BME280;48558;48.242;11.654;2023-02-15T07:29:08;97574.22;;;-0.93;100.00
62510;BME280;48558;48.242;11.654;2023-02-15T07:33:20;97570.00;;;-0.91;100.00
62510;BME280;48558;48.242;11.654;2023-02-15T07:37:36;97570.13;;;-0.64;100.00
62510;BME280;48558;48.242;11.654;2023-02-15T07:41:48;97562.81;;;-0.60;100.00
62510;BME280;48558;48.242;11.654;2023-02-15T07:46:04;97555.34;;;-0.67;100.00
62510;BME280;48558;48.242;11.654;2023-02-15T07:50:17;97568.63;;;-0.62;100.00
62510;BME280;48558;48.242;11.654;2023-02-15T07:54:30;97565.63;;;-0.57;100.00
62510;BME280;48558;48.242;11.654;2023-02-15T07:58:43;97559.88;;;-0.52;100.00
62510;BME280;48558;48.242;11.654;2023-02-15T08:03:04;97556.50;;;-0.87;100.00
62510;BME280;48558;48.242;11.654;2023-02-15T08:07:25;97553.94;;;-0.80;100.00
62510;BME280;48558;48.242;11.654;2023-02-15T08:11:38;97548.13;;;-0.59;100.00
62510;BME280;48558;48.242;11.654;2023-02-15T08:15:59;97541.50;;;-0.39;100.00
62510;BME280;48558;48.242;11.654;2023-02-15T08:20:19;97534.69;;;-0.30;100.00
62510;BME280;48558;48.242;11.654;2023-02-15T08:24:34;97558.06;;;-0.25;100.00
62510;BME280;48558;48.242;11.654;2023-02-15T08:28:56;97554.13;;;-0.05;100.00
62510;BME280;48558;48.242;11.654;2023-02-15T08:33:09;97548.88;;;0.06;100.00
62510;BME280;48558;48.242;11.654;2023-02-15T08:37:22;97544.81;;;0.19;100.00
62510;BME280;48558;48.242;11.654;2023-02-15T08:41:36;97544.91;;;0.26;100.00
62510;BME280;48558;48.242;11.654;2023-02-15T08:45:49;97547.63;;;0.26;100.00
62510;BME280;48558;48.242;11.654;2023-02-15T08:50:02;97553.25;;;0.14;100.00
62510;BME280;48558;48.242;11.654;2023-02-15T08:54:24;97547.88;;;-0.09;100.00
62510;BME280;48558;48.242;11.654;2023-02-15T08:58:38;97554.66;;;0.27;100.00
62510;BME280;48558;48.242;11.654;2023-02-15T09:02:50;97552.59;;;0.72;100.00
62510;BME280;48558;48.242;11.654;2023-02-15T09:07:04;97548.00;;;0.77;100.00
62510;BME280;48558;48.242;11.654;2023-02-15T09:11:25;97544.81;;;0.45;100.00
62510;BME280;48558;48.242;11.654;2023-02-15T09:15:41;97554.66;;;0.53;100.00
62510;BME280;48558;48.242;11.654;2023-02-15T09:19:53;97545.34;;;0.54;100.00
62510;BME280;48558;48.242;11.654;2023-02-15T09:24:11;97539.03;;;1.06;100.00
62510;BME280;48558;48.242;11.654;2023-02-15T09:28:24;97542.66;;;1.17;100.00
62510;BME280;48558;48.242;11.654;2023-02-15T09:32:37;97539.13;;;1.13;100.00
62510;BME280;48558;48.242;11.654;2023-02-15T09:36:50;97529.63;;;1.00;100.00
62510;BME280;48558;48.242;11.654;2023-02-15T09:46:02;97526.84;;;1.66;100.00
62510;BME280;48558;48.242;11.654;2023-02-15T09:55:33;97552.59;;;1.72;100.00
62510;BME280;48558;48.242;11.654;2023-02-15T10:00:02;97534.56;;;1.61;100.00
62510;BME280;48558;48.242;11.654;2023-02-15T10:09:03;97536.19;;;2.09;100.00
62510;BME280;48558;48.242;11.654;2023-02-15T10:13:44;97538.72;;;1.84;100.00
62510;BME280;48558;48.242;11.654;2023-02-15T10:27:47;97520.34;;;2.86;100.00
62510;BME280;48558;48.242;11.654;2023-02-15T10:41:36;97524.03;;;2.50;100.00
62510;BME280;48558;48.242;11.654;2023-02-15T10:51:08;97521.66;;;2.45;100.00
62510;BME280;48558;48.242;11.654;2023-02-15T10:56:04;97508.41;;;1.89;100.00
62510;BME280;48558;48.242;11.654;2023-02-15T11:00:46;97506.66;;;2.18;100.00
62510;BME280;48558;48.242;11.654;2023-02-15T11:05:14;97499.50;;;2.50;100.00
62510;BME280;48558;48.242;11.654;2023-02-15T11:09:51;97491.59;;;2.38;100.00
62510;BME280;48558;48.242;11.654;2023-02-15T11:18:59;97480.81;;;3.70;100.00
62510;BME280;48558;48.242;11.654;2023-02-15T11:23:16;97464.41;;;3.77;100.00
62510;BME280;48558;48.242;11.654;2023-02-15T11:27:31;97465.94;;;4.34;100.00
62510;BME280;48558;48.242;11.654;2023-02-15T11:31:54;97462.06;;;4.25;100.00
62510;BME280;48558;48.242;11.654;2023-02-15T11:36:14;97453.09;;;3.75;100.00
62510;BME280;48558;48.242;11.654;2023-02-15T11:40:36;97439.41;;;3.75;100.00
62510;BME280;48558;48.242;11.654;2023-02-15T11:45:27;97442.91;;;4.18;100.00
62510;BME280;48558;48.242;11.654;2023-02-15T11:49:41;97432.38;;;3.99;100.00
62510;BME280;48558;48.242;11.654;2023-02-15T11:53:54;97424.84;;;2.14;100.00
62510;BME280;48558;48.242;11.654;2023-02-15T11:58:28;97419.97;;;2.52;100.00
62510;BME280;48558;48.242;11.654;2023-02-15T12:02:51;97415.13;;;3.14;100.00
62510;BME280;48558;48.242;11.654;2023-02-15T12:07:26;97418.72;;;3.81;100.00
62510;BME280;48558;48.242;11.654;2023-02-15T12:11:41;97408.28;;;4.87;100.00
62510;BME280;48558;48.242;11.654;2023-02-15T12:15:55;97395.66;;;5.11;100.00
62510;BME280;48558;48.242;11.654;2023-02-15T12:24:28;97385.09;;;6.12;100.00
62510;BME280;48558;48.242;11.654;2023-02-15T12:28:44;97381.75;;;5.39;100.00
62510;BME280;48558;48.242;11.654;2023-02-15T12:37:23;97387.44;;;3.96;100.00
62510;BME280;48558;48.242;11.654;2023-02-15T12:46:28;97383.97;;;3.50;100.00
62510;BME280;48558;48.242;11.654;2023-02-15T12:50:42;97368.69;;;3.03;100.00
62510;BME280;48558;48.242;11.654;2023-02-15T12:55:10;97383.81;;;4.45;100.00
62510;BME280;48558;48.242;11.654;2023-02-15T12:59:30;97356.59;;;3.78;100.00
62510;BME280;48558;48.242;11.654;2023-02-15T13:04:02;97364.44;;;3.73;100.00
62510;BME280;48558;48.242;11.654;2023-02-15T13:08:28;97359.31;;;4.06;100.00
62510;BME280;48558;48.242;11.654;2023-02-15T13:12:46;97358.19;;;3.72;100.00
62510;BME280;48558;48.242;11.654;2023-02-15T13:17:01;97350.22;;;4.38;100.00
62510;BME280;48558;48.242;11.654;2023-02-15T13:21:22;97334.75;;;3.82;100.00
62510;BME280;48558;48.242;11.654;2023-02-15T13:25:44;97337.53;;;3.32;100.00
62510;BME280;48558;48.242;11.654;2023-02-15T13:30:10;97330.78;;;4.04;100.00
62510;BME280;48558;48.242;11.654;2023-02-15T13:34:33;97331.41;;;4.47;100.00
62510;BME280;48558;48.242;11.654;2023-02-15T13:43:55;97316.56;;;4.44;100.00
62510;BME280;48558;48.242;11.654;2023-02-15T14:16:31;97322.59;;;4.04;100.00
62510;BME280;48558;48.242;11.654;2023-02-15T14:21:10;97310.78;;;4.28;100.00
62510;BME280;48558;48.242;11.654;2023-02-15T14:25:59;97314.81;;;3.81;100.00
62510;BME280;48558;48.242;11.654;2023-02-15T14:30:20;97298.44;;;3.78;100.00
62510;BME280;48558;48.242;11.654;2023-02-15T14:34:57;97313.13;;;4.26;100.00
62510;BME280;48558;48.242;11.654;2023-02-15T14:39:41;97310.59;;;3.10;100.00
62510;BME280;48558;48.242;11.654;2023-02-15T14:44:31;97301.59;;;3.51;100.00
62510;BME280;48558;48.242;11.654;2023-02-15T14:49:23;97314.09;;;3.42;100.00
62510;BME280;48558;48.242;11.654;2023-02-15T14:53:38;97308.63;;;3.49;100.00
62510;BME280;48558;48.242;11.654;2023-02-15T14:57:58;97313.69;;;3.40;100.00
62510;BME280;48558;48.242;11.654;2023-02-15T15:02:24;97311.75;;;3.44;100.00
62510;BME280;48558;48.242;11.654;2023-02-15T15:06:42;97303.84;;;2.51;100.00
62510;BME280;48558;48.242;11.654;2023-02-15T15:10:56;97303.13;;;2.85;100.00
62510;BME280;48558;48.242;11.654;2023-02-15T15:24:05;97306.66;;;2.75;100.00
62510;BME280;48558;48.242;11.654;2023-02-15T15:32:59;97305.63;;;2.01;100.00
62510;BME280;48558;48.242;11.654;2023-02-15T15:37:45;97317.31;;;2.08;100.00
62510;BME280;48558;48.242;11.654;2023-02-15T15:42:29;97306.00;;;2.06;100.00
62510;BME280;48558;48.242;11.654;2023-02-15T15:51:13;97324.44;;;2.31;100.00
62510;BME280;48558;48.242;11.654;2023-02-15T15:55:30;97333.50;;;1.77;100.00
62510;BME280;48558;48.242;11.654;2023-02-15T15:59:46;97330.94;;;1.47;100.00
62510;BME280;48558;48.242;11.654;2023-02-15T16:03:59;97337.31;;;1.65;100.00
62510;BME280;48558;48.242;11.654;2023-02-15T16:08:12;97343.53;;;1.62;100.00
62510;BME280;48558;48.242;11.654;2023-02-15T16:12:29;97328.00;;;1.70;100.00
62510;BME280;48558;48.242;11.654;2023-02-15T16:16:49;97329.63;;;1.78;100.00
62510;BME280;48558;48.242;11.654;2023-02-15T16:21:04;97331.59;;;1.84;100.00
62510;BME280;48558;48.242;11.654;2023-02-15T16:25:31;97336.59;;;1.72;100.00
62510;BME280;48558;48.242;11.654;2023-02-15T16:29:51;97338.72;;;1.45;100.00
62510;BME280;48558;48.242;11.654;2023-02-15T16:34:14;97344.00;;;1.24;100.00
62510;BME280;48558;48.242;11.654;2023-02-15T16:43:03;97365.56;;;0.99;100.00
62510;BME280;48558;48.242;11.654;2023-02-15T16:47:25;97360.47;;;0.98;100.00
62510;BME280;48558;48.242;11.654;2023-02-15T16:51:41;97356.53;;;0.88;100.00
62510;BME280;48558;48.242;11.654;2023-02-15T16:56:02;97357.50;;;0.69;100.00
62510;BME280;48558;48.242;11.654;2023-02-15T17:00:22;97358.88;;;0.90;100.00
62510;BME280;48558;48.242;11.654;2023-02-15T17:04:38;97363.09;;;0.87;100.00
62510;BME280;48558;48.242;11.654;2023-02-15T17:08:52;97361.31;;;0.65;100.00
62510;BME280;48558;48.242;11.654;2023-02-15T17:13:13;97364.88;;;0.69;100.00
62510;BME280;48558;48.242;11.654;2023-02-15T17:17:27;97369.28;;;0.84;100.00
62510;BME280;48558;48.242;11.654;2023-02-15T17:22:03;97366.25;;;0.89;100.00
62510;BME280;48558;48.242;11.654;2023-02-15T17:26:23;97373.91;;;0.80;100.00
62510;BME280;48558;48.242;11.654;2023-02-15T17:30:50;97379.59;;;1.01;100.00
62510;BME280;48558;48.242;11.654;2023-02-15T17:35:16;97398.72;;;0.75;100.00
62510;BME280;48558;48.242;11.654;2023-02-15T17:39:32;97375.75;;;0.36;100.00
62510;BME280;48558;48.242;11.654;2023-02-15T17:43:44;97393.75;;;0.47;100.00
62510;BME280;48558;48.242;11.654;2023-02-15T17:47:57;97382.50;;;0.49;100.00
62510;BME280;48558;48.242;11.654;2023-02-15T17:52:12;97379.97;;;0.66;100.00
62510;BME280;48558;48.242;11.654;2023-02-15T17:56:25;97383.00;;;0.58;100.00
62510;BME280;48558;48.242;11.654;2023-02-15T18:00:41;97390.16;;;0.73;100.00
62510;BME280;48558;48.242;11.654;2023-02-15T18:05:14;97405.31;;;0.41;100.00
62510;BME280;48558;48.242;11.654;2023-02-15T18:09:46;97395.00;;;0.53;100.00
62510;BME280;48558;48.242;11.654;2023-02-15T18:14:17;97396.84;;;0.46;100.00
62510;BME280;48558;48.242;11.654;2023-02-15T18:18:29;97392.16;;;0.43;100.00
62510;BME280;48558;48.242;11.654;2023-02-15T18:22:42;97402.19;;;0.39;100.00
62510;BME280;48558;48.242;11.654;2023-02-15T18:26:55;97390.19;;;0.43;100.00
62510;BME280;48558;48.242;11.654;2023-02-15T18:31:09;97387.47;;;0.43;100.00
62510;BME280;48558;48.242;11.654;2023-02-15T18:35:33;97409.97;;;0.70;100.00
62510;BME280;48558;48.242;11.654;2023-02-15T18:39:47;97392.69;;;0.55;100.00
62510;BME280;48558;48.242;11.654;2023-02-15T18:44:01;97387.22;;;0.52;100.00
62510;BME280;48558;48.242;11.654;2023-02-15T18:48:13;97386.00;;;0.49;100.00
62510;BME280;48558;48.242;11.654;2023-02-15T18:52:32;97397.41;;;0.62;100.00
62510;BME280;48558;48.242;11.654;2023-02-15T18:56:55;97397.84;;;0.34;100.00
62510;BME280;48558;48.242;11.654;2023-02-15T19:01:17;97403.56;;;0.26;100.00
62510;BME280;48558;48.242;11.654;2023-02-15T19:05:31;97405.47;;;0.22;100.00
62510;BME280;48558;48.242;11.654;2023-02-15T19:09:47;97407.34;;;0.18;100.00
62510;BME280;48558;48.242;11.654;2023-02-15T19:14:01;97406.78;;;0.35;100.00
62510;BME280;48558;48.242;11.654;2023-02-15T19:18:24;97394.59;;;0.22;100.00
62510;BME280;48558;48.242;11.654;2023-02-15T19:22:37;97391.88;;;0.22;100.00
62510;BME280;48558;48.242;11.654;2023-02-15T19:26:50;97405.16;;;0.27;100.00
62510;BME280;48558;48.242;11.654;2023-02-15T19:31:03;97409.88;;;0.33;100.00
62510;BME280;48558;48.242;11.654;2023-02-15T19:35:18;97413.75;;;0.32;100.00
62510;BME280;48558;48.242;11.654;2023-02-15T19:39:38;97421.25;;;0.13;100.00
62510;BME280;48558;48.242;11.654;2023-02-15T19:43:52;97403.97;;;-0.02;100.00
62510;BME280;48558;48.242;11.654;2023-02-15T19:48:10;97420.03;;;0.07;100.00
62510;BME280;48558;48.242;11.654;2023-02-15T19:52:25;97417.66;;;0.05;100.00
62510;BME280;48558;48.242;11.654;2023-02-15T19:56:38;97398.72;;;0.12;100.00
62510;BME280;48558;48.242;11.654;2023-02-15T20:00:50;97405.69;;;0.10;100.00
62510;BME280;48558;48.242;11.654;2023-02-15T20:05:03;97403.22;;;0.01;100.00
62510;BME280;48558;48.242;11.654;2023-02-15T20:09:25;97403.75;;;0.40;100.00
62510;BME280;48558;48.242;11.654;2023-02-15T20:13:46;97398.53;;;0.28;100.00
62510;BME280;48558;48.242;11.654;2023-02-15T20:18:00;97397.84;;;0.34;100.00
62510;BME280;48558;48.242;11.654;2023-02-15T20:22:25;97391.97;;;0.29;100.00
62510;BME280;48558;48.242;11.654;2023-02-15T20:26:38;97380.59;;;0.20;100.00
62510;BME280;48558;48.242;11.654;2023-02-15T20:30:51;97394.81;;;0.10;100.00
62510;BME280;48558;48.242;11.654;2023-02-15T20:35:04;97387.66;;;0.28;100.00
62510;BME280;48558;48.242;11.654;2023-02-15T20:39:17;97383.56;;;0.41;100.00
62510;BME280;48558;48.242;11.654;2023-02-15T20:43:32;97383.22;;;0.13;100.00
62510;BME280;48558;48.242;11.654;2023-02-15T20:47:55;97384.03;;;0.17;100.00
62510;BME280;48558;48.242;11.654;2023-02-15T20:52:17;97388.34;;;0.18;100.00
62510;BME280;48558;48.242;11.654;2023-02-15T20:56:31;97373.47;;;0.12;100.00
62510;BME280;48558;48.242;11.654;2023-02-15T21:00:44;97372.25;;;0.06;100.00
62510;BME280;48558;48.242;11.654;2023-02-15T21:05:17;97385.00;;;-0.25;100.00
62510;BME280;48558;48.242;11.654;2023-02-15T21:09:35;97390.06;;;0.03;100.00
62510;BME280;48558;48.242;11.654;2023-02-15T21:13:49;97386.03;;;0.20;100.00
62510;BME280;48558;48.242;11.654;2023-02-15T21:18:04;97373.81;;;0.07;100.00
62510;BME280;48558;48.242;11.654;2023-02-15T21:22:18;97391.81;;;0.18;100.00
62510;BME280;48558;48.242;11.654;2023-02-15T21:26:32;97393.94;;;0.02;100.00
62510;BME280;48558;48.242;11.654;2023-02-15T21:30:46;97396.59;;;-0.02;100.00
62510;BME280;48558;48.242;11.654;2023-02-15T21:34:59;97383.00;;;-0.02;100.00
62510;BME280;48558;48.242;11.654;2023-02-15T21:39:23;97382.28;;;0.02;100.00
62510;BME280;48558;48.242;11.654;2023-02-15T21:43:37;97380.72;;;0.00;100.00
62510;BME280;48558;48.242;11.654;2023-02-15T21:48:08;97391.81;;;-0.12;100.00
62510;BME280;48558;48.242;11.654;2023-02-15T21:52:31;97381.56;;;-0.22;100.00
62510;BME280;48558;48.242;11.654;2023-02-15T21:56:43;97379.06;;;-0.08;100.00
62510;BME280;48558;48.242;11.654;2023-02-15T22:00:59;97376.72;;;-0.09;100.00
62510;BME280;48558;48.242;11.654;2023-02-15T22:05:18;97382.63;;;-0.30;100.00
62510;BME280;48558;48.242;11.654;2023-02-15T22:09:34;97382.34;;;-0.21;100.00
62510;BME280;48558;48.242;11.654;2023-02-15T22:13:48;97390.13;;;-0.20;100.00
62510;BME280;48558;48.242;11.654;2023-02-15T22:18:02;97391.78;;;-0.38;100.00
62510;BME280;48558;48.242;11.654;2023-02-15T22:22:16;97385.69;;;-0.31;100.00
62510;BME280;48558;48.242;11.654;2023-02-15T22:26:29;97361.09;;;-0.42;100.00
62510;BME280;48558;48.242;11.654;2023-02-15T22:30:43;97371.28;;;-0.35;100.00
62510;BME280;48558;48.242;11.654;2023-02-15T22:34:56;97347.66;;;-0.31;100.00
62510;BME280;48558;48.242;11.654;2023-02-15T22:39:09;97347.94;;;-0.14;100.00
62510;BME280;48558;48.242;11.654;2023-02-15T22:47:52;97339.28;;;-0.23;100.00
62510;BME280;48558;48.242;11.654;2023-02-15T22:52:11;97348.06;;;-0.03;100.00
62510;BME280;48558;48.242;11.654;2023-02-15T22:56:39;97343.75;;;-0.08;100.00
62510;BME280;48558;48.242;11.654;2023-02-15T23:00:56;97330.97;;;-0.04;100.00
62510;BME280;48558;48.242;11.654;2023-02-15T23:05:20;97342.34;;;-0.24;100.00
62510;BME280;48558;48.242;11.654;2023-02-15T23:09:34;97343.75;;;-0.34;100.00
62510;BME280;48558;48.242;11.654;2023-02-15T23:13:47;97322.97;;;-0.23;100.00
62510;BME280;48558;48.242;11.654;2023-02-15T23:18:14;97331.97;;;-0.19;100.00
62510;BME280;48558;48.242;11.654;2023-02-15T23:22:29;97332.81;;;-0.41;100.00
62510;BME280;48558;48.242;11.654;2023-02-15T23:26:52;97327.22;;;-0.51;100.00
62510;BME280;48558;48.242;11.654;2023-02-15T23:31:14;97332.28;;;-0.50;100.00
62510;BME280;48558;48.242;11.654;2023-02-15T23:35:29;97340.38;;;-0.53;100.00
62510;BME280;48558;48.242;11.654;2023-02-15T23:39:42;97341.06;;;-0.83;100.00
62510;BME280;48558;48.242;11.654;2023-02-15T23:44:13;97344.16;;;-1.07;100.00
62510;BME280;48558;48.242;11.654;2023-02-15T23:48:33;97354.56;;;-0.63;100.00
62510;BME280;48558;48.242;11.654;2023-02-15T23:52:49;97319.25;;;-0.41;100.00
62510;BME280;48558;48.242;11.654;2023-02-15T23:57:02;97323.34;;;-0.50;100.00
